Khanom, Thailand

1:53 PM ICT on August 20, 2014 (GMT +0700)
Samui | Change Station
CLOSE
Current Station
Airport
Location: Samui,
Elevation: 66 ft
Nearby Weather Stations

Elev 66 ft 9.55 °N, 100.06 °E | Updated 53 minutes ago

Mostly Cloudy
Mostly Cloudy
90 °F
Feels Like 102 °F
N
15
Wind Variable Wind from NW

Today
High -- | Low -- °F
--% Chance of Precip.
Yesterday
High -- | Low -- °F
Precip. -- in
6:12 AM 6:35 PM
Waning Crescent, 24% visible
Pressure 29.83 in
Visibility 6.2 miles
Clouds Few 2000 ft
Mostly Cloudy 30000 ft
Heat Index 102 °F
Dew Point 77 °F
Humidity 66%
Rainfall 0.00 in
Snow Depth Not available.
UV 9 out of 12
Pollen Not available.
Air Quality Not available.
Flu Activity Not available.
METAR VTSM 200600Z 31013KT 9999 FEW020 BKN300 32/25 Q1010 A2985

More Conditions Fewer Conditions

Pressure 29.83 in
Visibility 6.2 miles
Clouds Few 2000 ft
Mostly Cloudy 30000 ft
Heat Index 102 °F
Dew Point 77 °F
Humidity 66%
Rainfall 0.00 in
Snow Depth Not available.
UV 9 out of 12
Pollen Not available.
Air Quality Not available.
Flu Activity Not available.
METAR VTSM 200600Z 31013KT 9999 FEW020 BKN300 32/25 Q1010 A2985

More Conditions Fewer Conditions

10-Day Weather Forecast

Almanac

Astronomy

Aug. 20, 2014 Rise Set
Actual Time 6:12 AM ICT 6:35 PM ICT
Civil Twilight 5:50 AM ICT 6:57 PM ICT
Nautical Twilight 5:25 AM ICT 7:22 PM ICT
Astronomical Twilight 5:00 AM ICT 7:47 PM ICT
Moon 1:46 AM ICT 2:35 PM ICT
Length of Visible Light 13h 06m
Length of Day
12h 23m
Tomorrow will be 0m 28s shorter.
Waning Crescent, 24% of the Moon is Illuminated
Today
Waning Crescent
Aug 25
New
Sep 2
First Quarter
Sep 8
Full
Sep 15
Last Quarter

Yesterday's Extremes

Country Highs Country Lows

Community

WunderPhotos

Upload Photos

1,745,592 photos uploaded!

Nearby

Snow Depth

Not available.

Earthquake Activity

City Distance Mag. Time & Date
No recent earthquake activity has been reported nearby.
Minimum magnitude displayed is 2.5.

Coastal Water Temperatures

Place Temperature
No Stations Reporting

Nearby Weather Stations